Time;durP1;ratioP1;P1;durP2;ratioP2;P2;SDS_P1;SDS_P2;PMS_P1;PMS_P2;Temp;Humidity;BMP_temperature;BMP_pressure;BME280_temperature;BME280_humidity;BME280_pressure;Samples;Min_cycle;Max_cycle;Signal;HPM_P1;HPM_P2
2023/05/08 00:00:26;;;;;;;2.83;1.60;;;15.30;99.90;;;;;;5006466;28;20512;-75
2023/05/08 00:02:52;;;;;;;5.70;1.85;;;15.40;99.90;;;;;;4989137;28;20049;-75
2023/05/08 00:05:18;;;;;;;2.83;1.60;;;15.50;99.90;;;;;;4993992;28;20368;-75
2023/05/08 00:07:43;;;;;;;5.95;1.90;;;15.50;99.90;;;;;;4990176;28;20035;-75
2023/05/08 00:10:10;;;;;;;2.88;1.98;;;15.50;99.90;;;;;;4993872;28;20038;-75
2023/05/08 00:12:36;;;;;;;2.90;1.55;;;15.60;99.90;;;;;;4991001;28;20117;-75
2023/05/08 00:15:03;;;;;;;2.65;1.30;;;15.50;99.90;;;;;;4993307;28;20038;-75
2023/05/08 00:17:29;;;;;;;3.63;1.85;;;15.50;99.90;;;;;;4992402;28;20034;-75
2023/05/08 00:19:55;;;;;;;2.80;1.58;;;15.60;99.90;;;;;;4991635;28;20030;-75
2023/05/08 00:22:21;;;;;;;4.22;1.70;;;15.50;99.90;;;;;;4994111;28;20022;-75
2023/05/08 00:24:47;;;;;;;3.00;1.90;;;15.50;99.90;;;;;;4988656;28;20134;-75
2023/05/08 00:27:13;;;;;;;2.65;1.60;;;15.40;99.90;;;;;;4995104;28;20035;-75
2023/05/08 00:29:39;;;;;;;1.92;1.25;;;15.40;99.90;;;;;;4989855;28;20125;-75
2023/05/08 00:32:06;;;;;;;2.55;1.38;;;15.30;99.90;;;;;;4994682;28;20117;-75
2023/05/08 00:34:32;;;;;;;2.05;1.40;;;15.40;99.90;;;;;;4989585;28;20042;-75
2023/05/08 00:36:57;;;;;;;7.53;2.13;;;15.40;99.90;;;;;;4994937;28;20088;-75
2023/05/08 00:39:23;;;;;;;2.67;1.50;;;15.40;99.90;;;;;;4988397;28;20470;-75
2023/05/08 00:41:49;;;;;;;4.07;2.28;;;15.50;99.90;;;;;;4994654;28;20062;-75
2023/05/08 00:44:15;;;;;;;3.05;2.10;;;15.40;99.90;;;;;;4989643;28;20038;-75
2023/05/08 00:46:43;;;;;;;2.33;1.63;;;15.30;99.90;;;;;;4993302;28;20022;-75
2023/05/08 00:49:10;;;;;;;2.92;2.10;;;15.20;99.90;;;;;;4988144;28;20033;-75
2023/05/08 00:51:36;;;;;;;2.35;1.40;;;15.20;99.90;;;;;;4993323;28;20034;-75
2023/05/08 00:54:02;;;;;;;3.15;1.63;;;15.10;99.90;;;;;;4989243;28;20244;-75
2023/05/08 00:56:31;;;;;;;4.20;2.05;;;15.00;99.90;;;;;;4992918;28;20474;-75
2023/05/08 00:58:57;;;;;;;3.10;2.00;;;15.10;99.90;;;;;;4988272;28;20034;-75
2023/05/08 01:01:24;;;;;;;7.65;2.03;;;15.10;99.90;;;;;;4993139;28;20034;-75
2023/05/08 01:03:50;;;;;;;3.33;1.95;;;15.10;99.90;;;;;;4988715;28;20426;-75
2023/05/08 01:06:15;;;;;;;3.50;2.08;;;15.20;99.90;;;;;;4965614;28;20050;-75
2023/05/08 01:08:44;;;;;;;3.33;1.85;;;15.20;99.90;;;;;;4960674;28;20724;-75
2023/05/08 01:11:42;;;;;;;5.40;1.80;;;15.20;99.90;;;;;;4976873;28;20066;-75
2023/05/08 01:14:32;;;;;;;5.80;2.15;;;15.20;99.90;;;;;;4965780;28;20026;-75
2023/05/08 01:17:23;;;;;;;3.38;1.73;;;15.20;99.90;;;;;;4990476;28;20611;-75
2023/05/08 01:20:13;;;;;;;2.38;1.60;;;15.20;99.90;;;;;;4989598;28;20035;-74
2023/05/08 01:22:58;;;;;;;3.85;1.98;;;15.30;99.90;;;;;;4988658;28;20037;-74
2023/05/08 01:26:07;;;;;;;12.98;1.98;;;15.30;99.90;;;;;;4982096;28;20085;-74
2023/05/08 01:28:35;;;;;;;4.00;1.70;;;15.10;99.90;;;;;;4988639;28;20038;-74
2023/05/08 01:31:30;;;;;;;3.50;2.08;;;15.00;99.90;;;;;;4993634;28;20053;-74
2023/05/08 01:34:07;;;;;;;5.63;2.40;;;15.00;99.90;;;;;;4987963;28;20116;-74
2023/05/08 01:36:48;;;;;;;3.75;1.70;;;15.00;99.90;;;;;;4992313;28;20033;-74
2023/05/08 01:39:21;;;;;;;3.45;2.00;;;15.10;99.90;;;;;;4987389;28;20023;-74
2023/05/08 01:42:01;;;;;;;3.72;1.75;;;15.10;99.90;;;;;;4977899;28;20494;-74
2023/05/08 01:44:46;;;;;;;3.60;2.15;;;15.20;99.90;;;;;;4984328;28;20030;-74
2023/05/08 01:47:14;;;;;;;3.75;2.05;;;15.20;99.90;;;;;;4953557;29;20499;-74
2023/05/08 01:50:04;;;;;;;3.90;2.30;;;15.10;99.90;;;;;;4984908;28;20096;-75
2023/05/08 01:52:47;;;;;;;4.53;2.65;;;15.30;99.90;;;;;;4954604;28;20039;-75
2023/05/08 01:55:25;;;;;;;6.03;1.85;;;15.20;99.90;;;;;;4983593;28;20501;-75
2023/05/08 01:57:56;;;;;;;3.38;1.85;;;15.30;99.90;;;;;;4986823;28;20114;-74
2023/05/08 02:00:24;;;;;;;2.97;2.00;;;15.20;99.90;;;;;;4991978;28;20026;-75
2023/05/08 02:02:51;;;;;;;2.17;1.42;;;15.20;99.90;;;;;;4987927;28;20034;-75
2023/05/08 02:05:19;;;;;;;9.63;2.08;;;15.30;99.90;;;;;;4991550;28;20022;-75
2023/05/08 02:07:48;;;;;;;2.80;1.70;;;15.20;99.90;;;;;;4986753;28;20142;-75
2023/05/08 02:10:15;;;;;;;3.13;1.83;;;15.30;99.90;;;;;;4991773;28;20423;-75
2023/05/08 02:12:43;;;;;;;2.92;2.10;;;15.30;99.90;;;;;;4987226;28;20034;-75
2023/05/08 02:15:13;;;;;;;4.22;2.20;;;15.30;99.90;;;;;;4971102;28;20022;-75
2023/05/08 02:17:41;;;;;;;3.83;2.20;;;15.30;99.90;;;;;;4987839;28;20057;-75
2023/05/08 02:20:13;;;;;;;2.75;1.75;;;15.30;99.90;;;;;;4975383;28;20506;-75
2023/05/08 02:22:48;;;;;;;2.85;1.75;;;15.40;99.90;;;;;;4987597;28;20497;-75
2023/05/08 02:25:15;;;;;;;4.03;1.70;;;15.40;99.90;;;;;;4975876;28;20041;-75
2023/05/08 02:27:48;;;;;;;3.70;1.88;;;15.30;99.90;;;;;;4988040;28;20034;-75
2023/05/08 02:30:16;;;;;;;3.28;1.70;;;15.30;99.90;;;;;;4977049;28;20454;-75
2023/05/08 02:32:48;;;;;;;5.15;1.83;;;15.30;99.90;;;;;;4986137;28;20062;-75
2023/05/08 02:35:18;;;;;;;4.72;2.58;;;15.30;99.90;;;;;;4983803;28;20386;-75
2023/05/08 02:37:48;;;;;;;5.30;2.17;;;15.20;99.90;;;;;;4986266;28;20109;-75
2023/05/08 02:40:16;;;;;;;3.50;1.75;;;15.30;99.90;;;;;;4990976;28;20026;-74
2023/05/08 02:42:43;;;;;;;3.53;2.00;;;15.20;99.90;;;;;;4986365;28;20120;-74
2023/05/08 02:45:11;;;;;;;4.50;1.95;;;15.20;99.90;;;;;;4975329;28;20029;-74
2023/05/08 02:50:19;;;;;;;3.40;2.30;;;15.20;99.90;;;;;;4948920;28;20059;-74
2023/05/08 02:52:51;;;;;;;5.22;2.72;;;15.20;99.90;;;;;;4982005;28;20405;-73
2023/05/08 02:55:49;;;;;;;4.32;2.30;;;15.20;99.90;;;;;;4980227;28;20517;-73
2023/05/08 02:58:38;;;;;;;3.63;2.10;;;15.30;99.90;;;;;;4932282;29;20046;-74
2023/05/08 03:01:13;;;;;;;4.65;2.20;;;15.40;99.90;;;;;;4953098;29;20028;-73
2023/05/08 03:03:48;;;;;;;4.07;1.88;;;15.30;99.90;;;;;;4958228;28;20035;-72
2023/05/08 03:06:20;;;;;;;4.20;2.35;;;15.30;99.90;;;;;;4960494;28;20030;-72
2023/05/08 03:08:49;;;;;;;5.93;2.65;;;15.30;99.90;;;;;;4958023;28;20432;-73
2023/05/08 03:11:20;;;;;;;4.70;2.67;;;15.40;99.90;;;;;;4967688;28;20491;-73
2023/05/08 03:13:46;;;;;;;;;;;15.40;99.90;;;;;;4943764;29;20036;-72
2023/05/08 03:16:21;;;;;;;3.13;1.98;;;15.30;99.90;;;;;;4947324;29;19928;-72
2023/05/08 03:18:56;;;;;;;5.22;2.47;;;15.20;99.90;;;;;;4957863;28;20046;-72
2023/05/08 03:21:27;;;;;;;7.85;2.05;;;15.40;99.90;;;;;;4967667;28;20095;-72
2023/05/08 03:23:56;;;;;;;3.97;2.25;;;15.40;99.90;;;;;;4957929;28;20744;-72
2023/05/08 03:26:22;;;;;;;3.08;2.30;;;15.30;99.90;;;;;;4967520;28;20039;-72
2023/05/08 03:28:48;;;;;;;2.85;1.77;;;15.30;99.90;;;;;;4958128;28;20034;-72
2023/05/08 03:31:19;;;;;;;4.63;2.70;;;15.30;99.90;;;;;;4967532;28;20023;-72
2023/05/08 03:33:46;;;;;;;;;;;15.20;99.90;;;;;;4943396;29;20404;-73
2023/05/08 03:36:13;;;;;;;3.60;2.25;;;15.30;99.90;;;;;;4967086;28;19914;-73
2023/05/08 03:38:39;;;;;;;4.10;1.83;;;15.20;99.90;;;;;;4958578;28;20035;-73
2023/05/08 03:41:06;;;;;;;3.83;2.47;;;15.20;99.90;;;;;;4967137;28;20042;-73
2023/05/08 03:43:33;;;;;;;5.72;1.88;;;15.20;99.90;;;;;;4955880;28;20396;-73
2023/05/08 03:45:59;;;;;;;3.35;1.95;;;15.10;99.90;;;;;;4938804;29;20184;-73
2023/05/08 03:48:26;;;;;;;2.95;1.70;;;15.10;99.90;;;;;;4946499;28;20495;-73
2023/05/08 03:50:53;;;;;;;14.63;2.45;;;15.10;99.90;;;;;;4954096;28;20123;-73
2023/05/08 03:53:19;;;;;;;2.95;1.80;;;15.10;99.90;;;;;;4947667;28;20044;-73
2023/05/08 03:55:45;;;;;;;3.53;2.20;;;15.10;99.90;;;;;;4956142;28;20404;-73
2023/05/08 03:58:27;;;;;;;5.20;1.67;;;15.10;99.90;;;;;;4933131;29;20028;-73
2023/05/08 04:01:39;;;;;;;3.03;1.65;;;15.20;99.90;;;;;;4949335;29;20039;-73
2023/05/08 04:04:42;;;;;;;4.50;1.88;;;15.20;99.90;;;;;;4930985;29;20035;-73
2023/05/08 04:07:31;;;;;;;2.78;1.50;;;15.20;99.90;;;;;;4916029;28;20405;-73
2023/05/08 04:10:15;;;;;;;4.80;2.35;;;15.20;99.90;;;;;;4947338;28;20035;-73
2023/05/08 04:13:04;;;;;;;7.85;1.90;;;15.20;99.90;;;;;;4965533;28;20031;-73
2023/05/08 04:15:37;;;;;;;3.42;1.83;;;15.20;99.90;;;;;;4904398;28;20378;-73
2023/05/08 04:18:09;;;;;;;5.30;1.77;;;15.30;99.90;;;;;;4949278;28;20046;-73
2023/05/08 04:20:40;;;;;;;4.72;2.22;;;15.30;99.90;;;;;;4962601;28;20028;-72
2023/05/08 04:23:07;;;;;;;5.38;1.75;;;15.30;99.90;;;;;;4947096;29;20468;-75
2023/05/08 04:25:37;;;;;;;2.92;1.63;;;15.30;99.90;;;;;;4947490;29;20041;-72
2023/05/08 04:28:04;;;;;;;3.10;1.95;;;15.30;99.90;;;;;;4949425;28;20184;-73
2023/05/08 04:30:30;;;;;;;6.68;2.45;;;15.30;99.90;;;;;;4947232;29;20472;-72
2023/05/08 04:32:58;;;;;;;3.75;2.10;;;15.30;99.90;;;;;;4963233;28;20398;-73
2023/05/08 04:35:24;;;;;;;5.45;2.53;;;15.30;99.90;;;;;;4960655;28;20034;-73
2023/05/08 04:37:50;;;;;;;4.85;2.20;;;15.30;99.90;;;;;;4949441;28;20503;-72
2023/05/08 04:40:16;;;;;;;12.00;5.10;;;15.20;99.90;;;;;;4945332;29;20031;-72
2023/05/08 04:42:42;;;;;;;8.77;4.47;;;15.40;99.90;;;;;;4951059;29;20035;-73
2023/05/08 04:45:09;;;;;;;23.88;10.07;;;15.40;99.90;;;;;;4960882;28;20029;-73
2023/05/08 04:47:35;;;;;;;3.83;2.33;;;15.40;99.90;;;;;;4952194;28;20644;-72
2023/05/08 04:50:01;;;;;;;3.25;1.70;;;15.40;99.90;;;;;;4961681;28;20118;-72
2023/05/08 04:52:26;;;;;;;2.70;1.77;;;15.40;99.90;;;;;;4957212;28;20522;-73
2023/05/08 04:54:52;;;;;;;4.78;2.13;;;15.50;99.90;;;;;;4948838;29;20043;-72
2023/05/08 04:57:18;;;;;;;5.22;1.70;;;15.50;99.90;;;;;;4947000;28;20027;-73
2023/05/08 04:59:44;;;;;;;2.55;1.58;;;15.50;99.90;;;;;;4953778;28;20058;-72
2023/05/08 05:02:09;;;;;;;3.58;1.88;;;15.60;99.90;;;;;;4955395;28;20059;-74
2023/05/08 05:04:35;;;;;;;4.40;2.55;;;15.40;99.90;;;;;;4945631;28;20069;-77
2023/05/08 05:07:02;;;;;;;19.23;6.70;;;15.50;99.90;;;;;;4969185;28;20050;-73
2023/05/08 05:09:28;;;;;;;4.97;3.47;;;15.50;99.90;;;;;;4945520;29;20039;-72
2023/05/08 05:11:54;;;;;;;5.35;2.75;;;15.60;99.90;;;;;;4954902;28;20039;-72
2023/05/08 05:14:20;;;;;;;6.25;3.35;;;15.50;99.90;;;;;;4942396;28;20039;-73
2023/05/08 05:16:46;;;;;;;5.88;2.88;;;15.50;99.90;;;;;;4951910;29;20407;-72
2023/05/08 05:19:12;;;;;;;3.90;2.28;;;15.40;99.90;;;;;;4944867;29;20170;-72
2023/05/08 05:21:38;;;;;;;4.82;2.75;;;15.50;99.90;;;;;;4954923;29;20102;-73
2023/05/08 05:24:05;;;;;;;5.88;2.53;;;15.60;99.90;;;;;;4945045;28;20027;-73
2023/05/08 05:26:31;;;;;;;5.85;3.13;;;15.60;99.90;;;;;;4950530;29;20035;-72
2023/05/08 05:28:57;;;;;;;5.88;2.80;;;15.60;99.90;;;;;;4936800;29;20062;-72
2023/05/08 05:31:23;;;;;;;5.15;2.92;;;15.60;99.90;;;;;;4954864;29;20492;-73
2023/05/08 05:33:49;;;;;;;6.07;2.63;;;15.60;99.90;;;;;;4959720;28;20492;-73
2023/05/08 05:36:14;;;;;;;4.22;2.40;;;15.60;99.90;;;;;;4953288;29;20086;-72
2023/05/08 05:38:40;;;;;;;4.55;2.45;;;15.60;99.90;;;;;;4941551;29;20036;-73
2023/05/08 05:41:06;;;;;;;3.85;2.20;;;15.60;99.90;;;;;;4969166;28;20430;-74
2023/05/08 05:43:32;;;;;;;4.82;2.63;;;15.60;99.90;;;;;;4961448;28;20074;-72
2023/05/08 05:46:08;;;;;;;4.28;2.42;;;15.70;99.90;;;;;;4952871;29;20058;-72
2023/05/08 05:48:35;;;;;;;4.95;3.10;;;15.60;99.90;;;;;;4945853;29;20074;-73
2023/05/08 05:51:01;;;;;;;6.63;2.45;;;15.70;99.90;;;;;;4953436;29;20067;-72
2023/05/08 05:53:27;;;;;;;7.43;2.10;;;15.80;99.90;;;;;;4946830;28;20074;-73
2023/05/08 05:55:53;;;;;;;4.95;2.47;;;15.80;99.90;;;;;;4955954;28;20576;-72
2023/05/08 05:58:19;;;;;;;3.75;2.33;;;15.70;99.90;;;;;;4949587;28;20543;-73
2023/05/08 06:00:46;;;;;;;7.82;2.85;;;15.50;99.90;;;;;;4948641;28;20042;-73
2023/05/08 06:03:12;;;;;;;4.70;2.67;;;15.60;99.90;;;;;;4933474;29;20031;-72
2023/05/08 06:05:39;;;;;;;4.75;2.75;;;15.70;99.90;;;;;;4950333;29;20067;-70
2023/05/08 06:08:07;;;;;;;5.60;2.60;;;15.70;99.90;;;;;;4949690;28;20035;-73
2023/05/08 06:10:33;;;;;;;5.15;3.03;;;15.70;99.90;;;;;;4958092;28;20023;-73
2023/05/08 06:12:58;;;;;;;4.63;3.05;;;15.70;99.90;;;;;;4950177;29;20563;-73
2023/05/08 06:15:24;;;;;;;5.25;2.70;;;15.80;99.90;;;;;;4957577;28;20027;-73
2023/05/08 06:17:51;;;;;;;4.68;2.35;;;15.80;99.90;;;;;;4931390;29;20027;-73
2023/05/08 06:20:17;;;;;;;3.80;2.35;;;15.90;99.90;;;;;;4925691;29;20038;-74
2023/05/08 06:22:43;;;;;;;5.85;2.72;;;15.90;99.90;;;;;;4953769;28;20394;-73
2023/05/08 06:25:09;;;;;;;6.00;3.00;;;15.90;99.90;;;;;;4934192;28;20138;-73
2023/05/08 06:27:35;;;;;;;6.32;2.97;;;15.90;99.90;;;;;;4943693;28;20521;-72
2023/05/08 06:30:03;;;;;;;4.05;2.20;;;16.00;99.90;;;;;;4950850;29;20039;-72
2023/05/08 06:32:29;;;;;;;3.75;2.65;;;16.00;99.90;;;;;;4944112;28;20036;-73
2023/05/08 06:34:55;;;;;;;4.13;2.70;;;16.00;99.90;;;;;;4947643;29;20119;-73
2023/05/08 06:37:22;;;;;;;4.65;2.35;;;16.00;99.90;;;;;;4953660;28;20020;-73
2023/05/08 06:39:47;;;;;;;4.35;2.63;;;16.10;99.90;;;;;;4950823;29;20463;-72
2023/05/08 06:42:13;;;;;;;5.85;3.28;;;16.10;99.90;;;;;;4953347;28;20055;-73
2023/05/08 06:44:39;;;;;;;5.57;3.08;;;16.00;99.90;;;;;;4950522;28;20471;-74
2023/05/08 06:47:05;;;;;;;5.57;2.90;;;16.10;99.90;;;;;;4953482;28;20035;-73
2023/05/08 06:49:31;;;;;;;11.18;2.78;;;16.10;99.90;;;;;;4950606;28;20625;-75
2023/05/08 06:51:57;;;;;;;5.43;3.00;;;16.10;99.90;;;;;;4953451;28;20047;-74
2023/05/08 06:54:23;;;;;;;4.20;2.35;;;16.00;99.90;;;;;;4950079;28;20093;-73
2023/05/08 06:56:48;;;;;;;5.10;2.47;;;16.00;99.90;;;;;;4961414;28;20099;-73
2023/05/08 06:59:14;;;;;;;6.75;2.92;;;15.90;99.90;;;;;;4951734;28;20384;-73
2023/05/08 07:01:40;;;;;;;5.05;3.03;;;15.90;99.90;;;;;;4953419;28;20137;-74
2023/05/08 07:04:06;;;;;;;7.85;3.65;;;16.00;99.90;;;;;;4964849;28;20487;-74
2023/05/08 07:06:32;;;;;;;7.43;3.13;;;15.80;99.90;;;;;;4953119;28;20121;-73
2023/05/08 07:08:58;;;;;;;7.10;3.40;;;15.80;99.90;;;;;;4965344;28;20480;-73
2023/05/08 07:11:24;;;;;;;6.32;3.28;;;15.80;99.90;;;;;;4941892;29;20048;-72
2023/05/08 07:13:50;;;;;;;3.28;2.30;;;15.80;99.90;;;;;;4933079;29;20433;-73
2023/05/08 07:16:16;;;;;;;5.78;3.10;;;15.80;99.90;;;;;;4955256;28;20154;-72
2023/05/08 07:18:42;;;;;;;7.97;3.13;;;15.80;99.90;;;;;;4950528;28;20027;-73
2023/05/08 07:21:09;;;;;;;8.07;3.38;;;15.80;99.90;;;;;;4951289;28;20069;-72
2023/05/08 07:23:35;;;;;;;4.28;2.33;;;15.80;99.90;;;;;;4952036;28;20031;-73
2023/05/08 07:26:01;;;;;;;6.93;3.92;;;15.80;99.90;;;;;;4965724;28;20035;-73
2023/05/08 07:28:27;;;;;;;5.45;3.15;;;15.70;99.90;;;;;;4933575;29;20174;-73
2023/05/08 07:30:53;;;;;;;8.68;3.22;;;15.80;99.90;;;;;;4949379;29;20114;-73
2023/05/08 07:33:19;;;;;;;9.13;3.00;;;15.80;99.90;;;;;;4952443;28;20046;-73
2023/05/08 07:35:45;;;;;;;5.45;3.17;;;15.60;99.90;;;;;;4964816;28;20042;-72
2023/05/08 07:38:11;;;;;;;7.60;4.25;;;15.50;99.90;;;;;;4952616;29;20050;-73
2023/05/08 07:40:36;;;;;;;5.15;3.30;;;15.60;99.90;;;;;;4949877;28;20035;-72
2023/05/08 07:43:02;;;;;;;5.40;3.13;;;15.70;99.90;;;;;;4952683;28;20231;-72
2023/05/08 07:45:28;;;;;;;7.30;3.63;;;15.60;99.90;;;;;;4949601;28;20484;-73
2023/05/08 07:47:57;;;;;;;5.60;2.90;;;15.70;99.90;;;;;;4952407;28;20039;-73
2023/05/08 07:50:25;;;;;;;6.25;3.22;;;15.80;99.90;;;;;;4949107;29;20098;-72
2023/05/08 07:52:51;;;;;;;6.13;3.20;;;15.60;99.90;;;;;;4952648;29;20105;-73
2023/05/08 07:55:18;;;;;;;5.13;3.00;;;15.60;99.90;;;;;;4958824;28;20032;-73
2023/05/08 07:57:44;;;;;;;5.55;3.13;;;15.70;99.90;;;;;;4950561;28;20023;-73
2023/05/08 08:00:13;;;;;;;6.18;3.97;;;15.70;99.90;;;;;;4948144;28;20031;-73
2023/05/08 08:02:40;;;;;;;6.72;2.85;;;15.70;99.90;;;;;;4959215;28;20032;-73
2023/05/08 08:05:07;;;;;;;6.75;3.20;;;15.80;99.90;;;;;;4939080;29;20027;-73
2023/05/08 08:07:33;;;;;;;12.02;3.45;;;15.90;99.90;;;;;;4952249;28;20027;-73
2023/05/08 08:09:59;;;;;;;5.90;3.22;;;15.90;99.90;;;;;;4949647;28;20037;-73
2023/05/08 08:12:26;;;;;;;6.70;3.38;;;16.00;99.90;;;;;;4952088;28;20035;-71
2023/05/08 08:14:52;;;;;;;8.30;3.85;;;16.00;99.90;;;;;;4949253;28;20036;-73
2023/05/08 08:17:17;;;;;;;7.03;3.67;;;16.10;99.90;;;;;;4952508;29;20023;-74
2023/05/08 08:19:43;;;;;;;4.85;2.72;;;16.20;99.90;;;;;;4964636;28;20095;-74
2023/05/08 08:22:09;;;;;;;6.25;3.80;;;16.20;99.90;;;;;;4951154;28;20872;-74
2023/05/08 08:24:35;;;;;;;9.05;3.60;;;16.30;99.90;;;;;;4953148;29;20122;-74
2023/05/08 08:27:01;;;;;;;4.75;3.00;;;16.40;99.90;;;;;;4947746;28;20042;-73
2023/05/08 08:29:27;;;;;;;10.35;3.83;;;16.50;99.90;;;;;;4940950;29;20038;-73
2023/05/08 08:31:52;;;;;;;7.60;3.78;;;16.50;99.90;;;;;;4955781;28;20039;-60
2023/05/08 08:34:18;;;;;;;9.30;3.13;;;16.20;99.90;;;;;;4952843;28;20041;-74
2023/05/08 08:36:44;;;;;;;8.30;3.53;;;16.40;99.90;;;;;;4955833;29;20030;-74
2023/05/08 08:39:10;;;;;;;7.65;3.95;;;16.50;99.90;;;;;;4953280;29;20089;-75
2023/05/08 08:41:41;;;;;;;5.43;3.20;;;16.70;99.90;;;;;;4955596;28;20023;-74
2023/05/08 08:44:06;;;;;;;8.75;4.00;;;16.60;99.90;;;;;;4967355;28;20106;-74
2023/05/08 08:46:34;;;;;;;7.13;3.50;;;16.60;99.90;;;;;;4970382;28;20038;-74
2023/05/08 08:49:03;;;;;;;7.72;3.45;;;16.60;99.90;;;;;;4980887;23;20047;-79
2023/05/08 08:51:49;;;;;;;6.05;3.42;;;16.70;99.90;;;;;;4959237;28;20030;-81
2023/05/08 08:54:21;;;;;;;5.60;2.92;;;16.80;99.90;;;;;;4945457;28;20041;-81
2023/05/08 08:56:49;;;;;;;5.30;3.28;;;16.90;99.90;;;;;;4966912;28;20039;-79
2023/05/08 08:59:17;;;;;;;7.30;3.75;;;17.10;99.90;;;;;;4956550;28;20027;-79
2023/05/08 09:01:46;;;;;;;5.18;3.08;;;17.10;99.90;;;;;;4973688;28;20038;-80
2023/05/08 09:04:12;;;;;;;5.80;3.03;;;17.30;99.90;;;;;;4969542;28;20031;-81
2023/05/08 09:06:41;;;;;;;5.65;3.25;;;17.30;99.90;;;;;;4974747;28;20043;-79
2023/05/08 09:09:07;;;;;;;10.27;3.10;;;17.20;99.90;;;;;;4952402;28;20027;-81
2023/05/08 09:11:36;;;;;;;9.05;3.03;;;17.00;99.90;;;;;;4973382;28;20035;-81
2023/05/08 09:14:02;;;;;;;5.47;3.47;;;17.20;99.90;;;;;;4968061;28;20046;-68
2023/05/08 09:16:28;;;;;;;6.35;3.28;;;17.30;99.90;;;;;;4974431;28;20030;-68
2023/05/08 09:18:54;;;;;;;7.57;4.10;;;17.50;99.90;;;;;;4969239;28;20107;-66
2023/05/08 09:21:22;;;;;;;10.35;3.47;;;17.80;99.90;;;;;;4974556;28;20463;-68
2023/05/08 09:24:04;;;;;;;6.35;3.42;;;17.60;99.90;;;;;;4969023;28;20032;-68
2023/05/08 09:26:37;;;;;;;6.90;3.03;;;17.70;99.90;;;;;;4968912;28;20038;-69
2023/05/08 09:29:18;;;;;;;6.53;3.63;;;17.80;99.90;;;;;;4953931;28;20039;-75
2023/05/08 09:31:53;;;;;;;6.15;3.42;;;17.80;99.90;;;;;;4958040;28;20868;-77
2023/05/08 09:34:31;;;;;;;7.03;3.53;;;18.00;99.90;;;;;;4971277;28;20029;-77
2023/05/08 09:37:06;;;;;;;12.43;4.25;;;17.90;99.90;;;;;;4973381;28;20101;-79
2023/05/08 09:39:32;;;;;;;5.80;2.92;;;18.20;99.90;;;;;;4969325;28;20054;-79
2023/05/08 09:42:04;;;;;;;6.82;3.40;;;18.00;99.90;;;;;;4974098;28;20487;-80
2023/05/08 09:44:52;;;;;;;7.03;4.10;;;17.70;99.90;;;;;;4967735;28;20062;-80
2023/05/08 09:47:24;;;;;;;8.15;3.33;;;17.30;99.90;;;;;;4959495;28;20375;-78
2023/05/08 09:50:07;;;;;;;7.50;3.40;;;17.80;99.90;;;;;;4967704;28;20042;-78
2023/05/08 09:52:35;;;;;;;5.82;3.25;;;17.90;99.90;;;;;;4973831;28;20065;-74
2023/05/08 09:55:05;;;;;;;6.45;3.53;;;17.80;99.90;;;;;;4968147;28;20047;-77
2023/05/08 09:57:38;;;;;;;8.40;3.42;;;17.90;99.90;;;;;;4945821;28;20032;-75
2023/05/08 10:00:08;;;;;;;7.18;3.38;;;17.80;99.90;;;;;;4955869;28;20065;-76
2023/05/08 10:02:35;;;;;;;;;;;18.00;99.90;;;;;;4974018;28;20041;-76
2023/05/08 10:05:20;;;;;;;8.00;3.58;;;17.90;99.90;;;;;;4950133;28;20000;-76
2023/05/08 10:07:46;;;;;;;8.60;3.80;;;17.90;99.90;;;;;;4966852;28;20030;-76
2023/05/08 10:10:12;;;;;;;7.38;3.85;;;17.90;99.90;;;;;;4958460;28;20645;-76
2023/05/08 10:12:40;;;;;;;5.55;3.55;;;18.00;99.90;;;;;;4972151;28;20026;-76
2023/05/08 10:15:07;;;;;;;8.52;3.83;;;17.90;99.90;;;;;;4968182;28;20031;-76
2023/05/08 10:17:45;;;;;;;11.77;4.15;;;17.20;99.90;;;;;;4973630;28;20030;-76
2023/05/08 10:20:14;;;;;;;7.97;3.60;;;17.40;99.90;;;;;;4968250;28;20026;-77
2023/05/08 10:22:42;;;;;;;8.88;3.60;;;17.30;99.90;;;;;;4971940;28;20022;-76
2023/05/08 10:25:16;;;;;;;6.70;3.08;;;17.60;99.90;;;;;;4967648;28;20031;-77
2023/05/08 10:28:05;;;;;;;6.70;3.75;;;17.80;99.90;;;;;;4958179;28;20038;-77
2023/05/08 10:30:37;;;;;;;9.35;4.13;;;17.70;99.90;;;;;;4964586;28;20455;-76
2023/05/08 10:33:09;;;;;;;7.18;3.80;;;17.50;99.90;;;;;;4971845;28;20054;-77
2023/05/08 10:35:36;;;;;;;5.97;3.38;;;17.40;99.90;;;;;;4966380;28;20114;-77
2023/05/08 10:38:03;;;;;;;9.27;3.88;;;17.40;99.90;;;;;;4971575;28;20395;-75
2023/05/08 10:40:29;;;;;;;10.27;3.85;;;17.40;99.90;;;;;;4966433;28;20030;-75
2023/05/08 10:42:56;;;;;;;9.48;4.15;;;17.60;99.90;;;;;;4972715;28;20031;-75
2023/05/08 10:45:23;;;;;;;6.38;3.80;;;17.80;99.90;;;;;;4967607;28;20081;-76
2023/05/08 10:48:23;;;;;;;13.77;4.88;;;17.80;99.90;;;;;;4970915;28;20031;-76
2023/05/08 10:51:19;;;;;;;8.48;4.63;;;17.80;99.90;;;;;;4967907;28;20054;-75
2023/05/08 10:53:56;;;;;;;8.13;3.78;;;17.30;99.90;;;;;;4966234;28;20050;-76
2023/05/08 10:56:28;;;;;;;6.32;4.20;;;17.10;99.90;;;;;;4968224;28;20035;-75
2023/05/08 10:58:59;;;;;;;10.60;5.07;;;17.40;99.90;;;;;;4952636;28;20028;-76
2023/05/08 11:01:25;;;;;;;6.30;3.35;;;17.70;99.90;;;;;;4972442;28;20117;-76
2023/05/08 11:03:53;;;;;;;8.52;4.72;;;17.80;99.90;;;;;;4967476;28;20031;-76
2023/05/08 11:06:44;;;;;;;16.13;4.93;;;18.10;99.90;;;;;;4970952;28;20049;-76
2023/05/08 11:09:41;;;;;;;8.70;4.70;;;18.20;99.90;;;;;;4967445;28;20177;-77
2023/05/08 11:12:28;;;;;;;14.93;4.55;;;17.60;99.90;;;;;;4940215;28;20416;-77
2023/05/08 11:15:06;;;;;;;6.78;4.05;;;17.70;99.90;;;;;;4950493;28;20042;-77
2023/05/08 11:17:33;;;;;;;8.45;4.38;;;18.00;99.90;;;;;;4947669;28;20049;-76
2023/05/08 11:20:02;;;;;;;7.90;3.90;;;18.20;99.90;;;;;;4949975;28;20027;-76
2023/05/08 11:22:31;;;;;;;10.07;3.90;;;18.00;99.90;;;;;;4945167;28;20506;-77
2023/05/08 11:25:09;;;;;;;7.88;3.90;;;18.10;99.90;;;;;;4959156;28;20125;-77
2023/05/08 11:27:49;;;;;;;8.48;3.47;;;17.80;99.90;;;;;;4959507;28;20039;-77
2023/05/08 11:30:36;;;;;;;8.38;4.40;;;18.00;99.90;;;;;;4962846;28;20042;-77
2023/05/08 11:33:05;;;;;;;11.15;4.10;;;18.00;99.90;;;;;;4972084;28;20060;-77
2023/05/08 11:35:46;;;;;;;8.13;4.30;;;18.60;99.90;;;;;;4965526;28;20035;-77
2023/05/08 11:38:22;;;;;;;8.07;3.92;;;19.20;99.90;;;;;;4933839;29;20090;-77
2023/05/08 11:41:00;;;;;;;10.88;4.43;;;18.90;99.90;;;;;;4965060;28;20035;-77
2023/05/08 11:43:36;;;;;;;8.48;4.30;;;19.30;99.90;;;;;;4949590;28;20118;-77
2023/05/08 11:46:20;;;;;;;7.72;4.35;;;19.00;99.90;;;;;;4970446;28;20280;-78
2023/05/08 11:48:47;;;;;;;10.82;4.70;;;19.40;99.90;;;;;;4966073;28;20035;-77
2023/05/08 11:51:18;;;;;;;8.90;4.80;;;19.50;99.90;;;;;;4971483;28;20030;-77
2023/05/08 11:53:45;;;;;;;9.82;4.85;;;19.30;99.90;;;;;;4966616;28;20039;-78
2023/05/08 11:56:11;;;;;;;9.40;4.28;;;19.40;99.90;;;;;;4970250;28;20022;-77
2023/05/08 11:58:37;;;;;;;8.32;4.53;;;18.70;99.90;;;;;;4956151;28;20030;-77
2023/05/08 12:01:03;;;;;;;9.35;4.80;;;18.40;99.90;;;;;;4976400;28;20027;-77
2023/05/08 12:03:28;;;;;;;6.93;4.28;;;18.50;99.90;;;;;;4976833;28;20542;-78
2023/05/08 12:05:56;;;;;;;10.23;4.53;;;18.60;99.90;;;;;;4968006;28;20028;-78
2023/05/08 12:08:23;;;;;;;10.90;5.28;;;18.70;99.90;;;;;;4978630;28;20033;-78
2023/05/08 12:10:53;;;;;;;9.50;4.38;;;18.50;99.90;;;;;;4969136;28;20146;-78
2023/05/08 12:13:22;;;;;;;8.43;4.07;;;18.90;99.90;;;;;;4977126;28;20023;-78
2023/05/08 12:15:56;;;;;;;9.55;3.85;;;19.00;99.90;;;;;;4966959;28;20042;-79
2023/05/08 12:18:25;;;;;;;10.73;5.20;;;19.30;99.90;;;;;;4976961;28;20613;-78
2023/05/08 12:20:57;;;;;;;9.82;5.47;;;19.00;99.90;;;;;;4973610;28;20035;-78
2023/05/08 12:23:25;;;;;;;7.95;4.35;;;18.50;99.90;;;;;;4977611;28;20513;-79
2023/05/08 12:25:55;;;;;;;6.60;4.00;;;18.30;99.90;;;;;;4988769;28;20549;-78
2023/05/08 12:28:21;;;;;;;9.93;4.97;;;18.70;99.90;;;;;;4957916;28;20038;-77
2023/05/08 12:30:47;;;;;;;7.15;3.70;;;18.80;99.90;;;;;;4972861;28;20031;-78
2023/05/08 12:33:13;;;;;;;7.35;4.45;;;18.50;99.90;;;;;;4976647;28;20121;-78
2023/05/08 12:35:39;;;;;;;6.80;3.95;;;18.30;99.90;;;;;;4971603;28;20039;-78
2023/05/08 12:38:07;;;;;;;9.55;4.32;;;18.60;99.90;;;;;;4977995;28;20434;-78
2023/05/08 12:40:42;;;;;;;8.57;3.70;;;19.00;99.90;;;;;;4973024;28;20035;-78
2023/05/08 12:43:08;;;;;;;6.38;3.75;;;19.00;99.90;;;;;;4938257;29;20036;-78
2023/05/08 12:45:41;;;;;;;7.00;3.72;;;19.40;99.90;;;;;;4967933;28;20146;-78
2023/05/08 12:48:14;;;;;;;9.25;3.85;;;19.30;99.90;;;;;;4939245;29;20067;-78
2023/05/08 12:50:42;;;;;;;6.45;3.17;;;19.50;99.90;;;;;;4970625;28;20089;-78
2023/05/08 12:53:16;;;;;;;4.70;2.53;;;19.60;99.90;;;;;;4938978;29;20027;-78
2023/05/08 12:56:03;;;;;;;7.43;3.25;;;19.70;99.90;;;;;;4970250;28;20169;-78
2023/05/08 12:58:32;;;;;;;12.38;3.75;;;19.80;99.90;;;;;;4938307;29;20027;-78
2023/05/08 13:01:09;;;;;;;4.65;2.90;;;19.70;99.90;;;;;;4958222;28;20101;-78
2023/05/08 13:03:35;;;;;;;7.13;3.67;;;19.20;99.90;;;;;;4974328;28;20079;-78
2023/05/08 13:06:01;;;;;;;4.35;2.80;;;19.00;99.90;;;;;;4990741;28;20055;-78